TimeIST,TemperatureF,Dew PointF,Humidity,Sea Level PressureIn,VisibilityMPH,Wind Direction,Wind SpeedMPH,Gust SpeedMPH,PrecipitationIn,Events,Conditions,WindDirDegrees,DateUTC
12:00 AM,57.2,55.4,94,30.06,0.7,Calm,Calm,-,N/A,,Mist,0,2012-11-16 18:30:00
12:30 AM,57.2,55.4,94,30.06,0.7,Calm,Calm,-,N/A,,Mist,0,2012-11-16 19:00:00
1:00 AM,55.4,55.4,100,30.04,0.6,Calm,Calm,-,N/A,Fog,Fog,0,2012-11-16 19:30:00
1:30 AM,55.4,55.4,100,30.04,0.3,Calm,Calm,-,N/A,Fog,Fog,0,2012-11-16 20:00:00
2:00 AM,55.4,55.4,100,30.04,0.2,Calm,Calm,-,N/A,Fog,Fog,0,2012-11-16 20:30:00
2:30 AM,54,54,100,30.05,0,Calm,Calm,,,Fog,Partial Fog,,2012-11-16 21:00:00
2:30 AM,53.6,53.6,100,30.04,0.2,Calm,Calm,-,N/A,Fog,Fog,0,2012-11-16 21:00:00
3:00 AM,53.6,53.6,100,30.04,0.2,Calm,Calm,-,N/A,Fog,Fog,0,2012-11-16 21:30:00
3:30 AM,51.8,51.8,100,30.04,0.2,Calm,Calm,-,N/A,Fog,Fog,0,2012-11-16 22:00:00
4:00 AM,51.8,51.8,100,30.04,0.2,Calm,Calm,-,N/A,Fog,Fog,0,2012-11-16 22:30:00
5:00 AM,50.0,50.0,100,30.04,0.2,Calm,Calm,-,N/A,Fog,Fog,0,2012-11-16 23:30:00
5:30 AM,50,50,100,30.05,0,Calm,Calm,,,Fog,Partial Fog,,2012-11-17 00:00:00
5:30 AM,50.0,50.0,100,30.04,0.2,Calm,Calm,-,N/A,Fog,Fog,0,2012-11-17 00:00:00
6:00 AM,48.2,48.2,100,30.04,0.2,Calm,Calm,-,N/A,Fog,Fog,0,2012-11-17 00:30:00
6:30 AM,48.2,48.2,100,30.04,0.2,Calm,Calm,-,N/A,Fog,Fog,0,2012-11-17 01:00:00
7:00 AM,48.2,48.2,100,30.04,0.2,Calm,Calm,-,N/A,Fog,Fog,0,2012-11-17 01:30:00
7:30 AM,48.2,48.2,100,30.04,0.2,Calm,Calm,-,N/A,Fog,Fog,0,2012-11-17 02:00:00
8:30 AM,52,52,99,30.09,0,Calm,Calm,,,Fog,Partial Fog,,2012-11-17 03:00:00
8:30 AM,51.8,51.8,100,30.06,0.4,Calm,Calm,-,N/A,Fog,Fog,0,2012-11-17 03:00:00
9:30 AM,57.2,55.4,94,30.09,0.5,Calm,Calm,-,N/A,Fog,Fog,0,2012-11-17 04:00:00
10:00 AM,59.0,57.2,94,30.09,0.5,Calm,Calm,-,N/A,Fog,Fog,0,2012-11-17 04:30:00
10:30 AM,60.8,57.2,88,30.09,0.5,Calm,Calm,-,N/A,Fog,Fog,0,2012-11-17 05:00:00
11:00 AM,62.6,55.4,77,30.09,0.6,Calm,Calm,-,N/A,,Mist,0,2012-11-17 05:30:00
11:30 AM,67,56,61,30.07,1,Calm,Calm,,,,Haze,,2012-11-17 06:00:00
11:30 AM,66.2,57.2,73,30.09,0.7,Calm,Calm,-,N/A,,Haze,0,2012-11-17 06:00:00
12:00 PM,69.8,57.2,64,30.06,0.9,Calm,Calm,-,N/A,,Haze,0,2012-11-17 06:30:00
12:30 PM,71.6,55.4,57,30.06,1.1,Calm,Calm,-,N/A,,Haze,0,2012-11-17 07:00:00
1:00 PM,73.4,53.6,50,30.06,1.2,Calm,Calm,-,N/A,,Smoke,0,2012-11-17 07:30:00
1:30 PM,75.2,53.6,47,30.04,1.2,Variable,2.3,-,N/A,,Smoke,0,2012-11-17 08:00:00
2:00 PM,77.0,53.6,44,30.01,1.6,Variable,2.3,-,N/A,,Smoke,0,2012-11-17 08:30:00
2:30 PM,77,54,35,29.99,1,NW,3.5,,,,Smoke,320,2012-11-17 09:00:00
2:30 PM,77.0,53.6,44,30.01,1.6,NW,3.5,-,N/A,,Smoke,320,2012-11-17 09:00:00
3:00 PM,78.8,51.8,39,30.01,2.2,Variable,2.3,-,N/A,,Smoke,0,2012-11-17 09:30:00
3:30 PM,78.8,51.8,39,30.01,2.2,NW,3.5,-,N/A,,Smoke,310,2012-11-17 10:00:00
4:00 PM,78.8,53.6,42,30.01,2.2,Variable,1.2,-,N/A,,Smoke,0,2012-11-17 10:30:00
4:30 PM,78.8,53.6,42,29.98,2.2,Variable,1.2,-,N/A,,Smoke,0,2012-11-17 11:00:00
5:00 PM,77.0,53.6,44,30.01,-9999.0,Variable,1.2,-,N/A,,Smoke,0,2012-11-17 11:30:00
5:30 PM,74,59,49,29.97,1,Calm,Calm,,,,Haze,,2012-11-17 12:00:00
6:00 PM,69.8,60.8,73,29.98,1.2,Calm,Calm,-,N/A,,Haze,0,2012-11-17 12:30:00
6:30 PM,69.8,60.8,73,30.01,1.2,Calm,Calm,-,N/A,,Haze,0,2012-11-17 13:00:00
7:00 PM,68.0,60.8,78,30.01,1.2,Calm,Calm,-,N/A,,Haze,0,2012-11-17 13:30:00
7:30 PM,68.0,60.8,78,30.01,1.2,Calm,Calm,-,N/A,,Haze,0,2012-11-17 14:00:00
8:30 PM,65,60,80,30.00,1,Calm,Calm,,,,Mist,,2012-11-17 15:00:00
8:30 PM,64.4,60.8,88,30.01,0.7,Calm,Calm,-,N/A,,Mist,0,2012-11-17 15:00:00
9:00 PM,62.6,60.8,94,30.01,0.6,Calm,Calm,-,N/A,,Mist,0,2012-11-17 15:30:00
9:30 PM,62.6,57.2,82,30.01,0.6,Calm,Calm,-,N/A,,Mist,0,2012-11-17 16:00:00
10:00 PM,62.6,57.2,82,30.01,0.5,Calm,Calm,-,N/A,Fog,Fog,0,2012-11-17 16:30:00
10:30 PM,60.8,57.2,88,30.01,0.5,Calm,Calm,-,N/A,Fog,Fog,0,2012-11-17 17:00:00
11:00 PM,60.8,57.2,88,30.01,0.5,Calm,Calm,-,N/A,Fog,Fog,0,2012-11-17 17:30:00
11:30 PM,59,55,84,30.00,0,Calm,Calm,,,,Mist,,2012-11-17 18:00:00
11:30 PM,59.0,55.4,88,30.01,0.5,Calm,Calm,-,N/A,Fog,Fog,0,2012-11-17 18:00:00